Time;durP1;ratioP1;P1;durP2;ratioP2;P2;SDS_P1;SDS_P2;PMS_P1;PMS_P2;Temp;Humidity;BMP_temperature;BMP_pressure;BME280_temperature;BME280_humidity;BME280_pressure;Samples;Min_cycle;Max_cycle;Signal;HPM_P1;HPM_P2
2021/10/11 00:04:08;;;;;;;76.15;39.03;;;;;;;2.22;80.23;99843.61;4267544;82;21567;-82
2021/10/11 00:10:17;;;;;;;81.10;38.40;;;;;;;2.05;80.42;99843.38;4194434;83;21086;-82
2021/10/11 00:16:16;;;;;;;78.47;40.55;;;;;;;1.98;80.77;99832.17;4206644;83;21063;-81
2021/10/11 00:22:19;;;;;;;76.00;38.75;;;;;;;1.84;80.44;99828.66;4271343;82;21551;-81
2021/10/11 00:28:20;;;;;;;73.28;38.60;;;;;;;1.85;81.60;99826.20;4180162;83;21069;-81
2021/10/11 00:34:21;;;;;;;72.40;38.25;;;;;;;2.09;81.58;99825.48;4196158;83;21507;-81
2021/10/11 00:40:22;;;;;;;79.50;37.67;;;;;;;2.24;81.57;99818.42;4266391;82;21128;-81
2021/10/11 00:46:24;;;;;;;83.58;40.60;;;;;;;2.25;81.46;99819.23;4268203;82;21087;-82
2021/10/11 00:52:25;;;;;;;78.22;38.30;;;;;;;1.82;80.64;99816.56;4268777;82;21083;-81
2021/10/11 00:58:27;;;;;;;68.37;37.38;;;;;;;1.71;80.96;99807.05;4262612;82;21075;-82
2021/10/11 01:04:29;;;;;;;73.22;38.10;;;;;;;1.63;81.28;99810.66;4270980;82;20996;-82
2021/10/11 01:10:30;;;;;;;77.03;38.87;;;;;;;1.59;81.35;99801.58;4266610;82;21043;-83
2021/10/11 01:16:33;;;;;;;74.05;39.13;;;;;;;1.54;81.85;99784.11;4270337;82;21066;-82
2021/10/11 01:22:38;;;;;;;77.20;38.42;;;;;;;1.69;82.45;99788.98;4268692;82;21547;-82
2021/10/11 01:28:40;;;;;;;83.92;41.13;;;;;;;1.76;82.43;99792.08;4267017;82;21413;-82
2021/10/11 01:34:41;;;;;;;75.83;38.38;;;;;;;1.74;82.32;99784.28;4273141;82;21044;-82
2021/10/11 01:40:42;;;;;;;76.90;37.63;;;;;;;1.61;81.86;99777.77;4193740;83;22270;-83
2021/10/11 01:46:43;;;;;;;69.85;37.88;;;;;;;1.58;82.17;99769.48;4195758;83;21562;-83
2021/10/11 01:52:45;;;;;;;79.90;40.70;;;;;;;1.50;81.56;99770.95;4282517;81;21066;-82
2021/10/11 01:58:46;;;;;;;83.12;42.15;;;;;;;1.35;82.50;99771.22;4277304;81;20968;-82
2021/10/11 02:04:47;;;;;;;79.53;38.67;;;;;;;1.57;82.66;99768.67;4277746;81;21066;-83
2021/10/11 02:10:48;;;;;;;80.25;37.45;;;;;;;1.48;82.49;99766.95;4203945;83;21611;-83
2021/10/11 02:16:49;;;;;;;72.85;38.85;;;;;;;1.40;82.25;99754.95;4278517;81;21118;-83
2021/10/11 02:22:52;;;;;;;80.65;38.98;;;;;;;1.39;82.53;99749.86;4278346;81;21039;-83
2021/10/11 02:28:54;;;;;;;67.45;35.40;;;;;;;1.33;82.32;99739.69;4284500;81;21158;-83
2021/10/11 02:34:55;;;;;;;66.00;36.75;;;;;;;1.35;82.65;99746.13;4282788;81;21047;-84
2021/10/11 02:40:58;;;;;;;73.50;36.05;;;;;;;1.51;82.88;99745.58;4281160;81;21524;-83
2021/10/11 02:46:59;;;;;;;74.10;36.40;;;;;;;1.44;82.86;99737.06;4270593;82;21126;-84
2021/10/11 02:53:00;;;;;;;65.30;35.48;;;;;;;1.25;82.57;99728.22;4267055;82;21091;-83
2021/10/11 02:59:01;;;;;;;73.52;36.73;;;;;;;1.10;82.42;99716.90;4270058;82;21074;-83
2021/10/11 03:05:04;;;;;;;70.12;34.67;;;;;;;0.80;82.61;99720.11;4268034;82;21150;-83
2021/10/11 03:11:06;;;;;;;61.58;32.73;;;;;;;0.91;82.79;99717.51;4270209;82;21091;-83
2021/10/11 03:17:07;;;;;;;68.75;34.67;;;;;;;1.32;83.46;99708.96;4283790;81;51675;-82
2021/10/11 03:23:09;;;;;;;64.60;34.75;;;;;;;1.32;83.46;99708.96;4298949;81;21088;-83
2021/10/11 03:29:10;;;;;;;77.87;37.10;;;;;;;1.15;83.31;99703.33;4308845;81;20997;-83
2021/10/11 03:35:12;;;;;;;74.32;36.45;;;;;;;1.28;83.35;99707.97;4310765;81;21057;-84
2021/10/11 03:41:13;;;;;;;70.87;34.73;;;;;;;0.90;82.78;99713.20;4308367;81;21033;-83
2021/10/11 03:47:16;;;;;;;71.95;34.03;;;;;;;0.74;83.19;99678.14;4311156;81;21570;-83
2021/10/11 03:53:17;;;;;;;68.57;34.53;;;;;;;0.96;84.21;99703.39;4316402;81;22034;-82
2021/10/11 03:59:25;;;;;;;68.17;35.05;;;;;;;1.06;83.72;99696.48;4315289;81;21040;-82
2021/10/11 04:05:26;;;;;;;77.53;39.50;;;;;;;1.10;83.60;99692.09;4212282;83;21506;-82
2021/10/11 04:11:34;;;;;;;70.95;35.30;;;;;;;0.87;83.13;99697.07;4314232;81;21509;-81
2021/10/11 04:17:38;;;;;;;73.40;35.17;;;;;;;0.65;84.05;99673.17;4205369;83;21029;-81
2021/10/11 04:23:39;;;;;;;71.97;36.63;;;;;;;0.90;84.27;99684.89;4179652;83;21051;-82
2021/10/11 04:29:41;;;;;;;72.62;36.73;;;;;;;0.92;84.02;99675.43;4181482;83;21105;-83
2021/10/11 04:35:43;;;;;;;66.40;35.68;;;;;;;1.00;84.15;99660.47;4178850;83;21022;-81
2021/10/11 04:41:45;;;;;;;72.62;32.75;;;;;;;1.00;84.15;99660.47;4175623;83;21506;-80
2021/10/11 04:47:46;;;;;;;69.80;34.83;;;;;;;1.02;84.08;99661.76;4112277;85;21712;-81
2021/10/11 04:53:47;;;;;;;83.30;42.20;;;;;;;1.12;84.36;99658.90;4102848;85;21064;-80
2021/10/11 04:59:48;;;;;;;81.50;40.25;;;;;;;1.11;84.56;99640.32;4101695;85;21107;-81
2021/10/11 05:05:57;;;;;;;76.62;39.18;;;;;;;1.17;84.18;99644.52;4236362;82;21066;-80
2021/10/11 05:12:02;;;;;;;100.92;49.77;;;;;;;1.09;84.37;99624.98;4117694;85;21015;-81
2021/10/11 05:18:04;;;;;;;87.30;46.35;;;;;;;1.33;84.04;99664.73;4115405;85;21444;-81
2021/10/11 05:24:09;;;;;;;89.05;46.48;;;;;;;1.21;84.24;99661.69;4107335;85;21107;-81
2021/10/11 05:30:10;;;;;;;82.42;41.60;;;;;;;1.25;84.22;99666.76;4126127;85;21046;-80
2021/10/11 05:36:14;;;;;;;77.08;37.95;;;;;;;1.10;84.36;99648.95;4231558;82;21026;-81
2021/10/11 05:42:16;;;;;;;78.52;39.23;;;;;;;1.36;84.48;99666.83;4255508;81;21162;-81
2021/10/11 05:48:17;;;;;;;76.70;37.88;;;;;;;1.27;84.50;99635.69;4186690;83;21587;-80
2021/10/11 05:54:18;;;;;;;69.50;37.13;;;;;;;1.34;84.46;99646.89;4191356;83;21033;-82
2021/10/11 06:00:21;;;;;;;77.30;39.13;;;;;;;1.64;84.75;99665.73;4078618;86;21085;-80
2021/10/11 06:06:22;;;;;;;73.47;38.73;;;;;;;1.91;84.90;99666.27;4281244;81;21041;-80
2021/10/11 06:12:24;;;;;;;72.90;37.40;;;;;;;2.31;85.09;99656.73;4288780;81;21043;-81
2021/10/11 06:18:28;;;;;;;70.32;38.10;;;;;;;2.66;84.75;99660.52;4289320;81;21087;-82
2021/10/11 06:24:30;;;;;;;69.45;35.98;;;;;;;2.93;84.47;99659.83;4288770;81;21494;-82
2021/10/11 06:30:32;;;;;;;77.92;37.73;;;;;;;3.10;84.24;99646.98;4191479;83;21643;-82
2021/10/11 06:36:36;;;;;;;73.50;36.08;;;;;;;3.24;84.12;99644.98;4143799;84;21405;-82
2021/10/11 06:42:37;;;;;;;71.10;36.50;;;;;;;3.38;84.12;99642.17;4203171;82;21007;-84
2021/10/11 06:48:38;;;;;;;79.87;42.38;;;;;;;3.44;84.33;99647.68;4240254;82;21125;-83
2021/10/11 06:54:40;;;;;;;92.88;48.83;;;;;;;3.56;84.29;99654.09;4175907;83;21090;-83
2021/10/11 07:00:41;;;;;;;95.28;48.45;;;;;;;3.76;84.13;99652.75;4169984;83;21071;-83
2021/10/11 07:06:43;;;;;;;96.22;48.92;;;;;;;3.80;83.92;99649.64;4186618;83;21118;-83
2021/10/11 07:12:44;;;;;;;88.97;46.18;;;;;;;3.76;84.19;99648.69;4224812;82;21042;-82
2021/10/11 07:18:45;;;;;;;86.35;45.55;;;;;;;3.86;84.40;99657.31;4199192;83;21079;-82
2021/10/11 07:24:48;;;;;;;90.62;48.70;;;;;;;4.19;85.12;99651.73;4200746;83;21858;-82
2021/10/11 07:30:50;;;;;;;87.62;46.98;;;;;;;4.81;85.81;99645.41;4199148;83;21023;-82
2021/10/11 07:36:51;;;;;;;91.53;47.85;;;;;;;5.59;85.67;99643.52;4188122;83;27154;-82
2021/10/11 07:42:54;;;;;;;91.15;49.23;;;;;;;6.18;85.00;99635.64;4177451;83;21811;-82
2021/10/11 07:48:56;;;;;;;90.25;46.90;;;;;;;6.42;84.29;99630.11;4169529;84;21070;-81
2021/10/11 07:54:57;;;;;;;93.80;48.60;;;;;;;6.62;83.92;99625.21;4164954;83;21041;-81
2021/10/11 08:00:58;;;;;;;86.80;48.95;;;;;;;6.72;83.95;99613.93;4112797;85;21043;-81
2021/10/11 08:07:00;;;;;;;87.12;46.73;;;;;;;6.81;83.44;99613.28;4168225;84;21098;-81
2021/10/11 08:13:02;;;;;;;78.02;43.98;;;;;;;7.23;83.71;99604.66;4153969;84;21000;-81
2021/10/11 08:19:04;;;;;;;75.55;44.03;;;;;;;7.53;83.59;99600.59;4261268;82;21023;-82
2021/10/11 08:25:06;;;;;;;76.30;42.00;;;;;;;8.00;83.56;99608.52;4258561;82;21024;-82
2021/10/11 08:31:07;;;;;;;73.75;43.42;;;;;;;8.75;83.47;99600.06;4258873;82;21598;-83
2021/10/11 08:37:08;;;;;;;75.12;45.35;;;;;;;9.49;82.49;99597.33;4258465;82;21065;-83
2021/10/11 08:43:10;;;;;;;87.97;48.85;;;;;;;9.79;81.68;99596.87;4245176;81;21070;-82
2021/10/11 08:49:12;;;;;;;78.02;44.35;;;;;;;9.84;80.80;99597.38;4212135;80;24162;-82
2021/10/11 08:55:13;;;;;;;73.60;40.52;;;;;;;9.87;80.44;99588.47;4176836;84;21036;-82
2021/10/11 09:01:17;;;;;;;77.67;43.02;;;;;;;9.91;80.40;99594.83;4173433;84;21064;-82
2021/10/11 09:07:31;;;;;;;70.50;38.88;;;;;;;10.21;80.24;99586.93;4173115;84;21550;-82
2021/10/11 09:13:40;;;;;;;68.95;38.33;;;;;;;10.59;79.57;99582.83;4174678;84;21101;-82
2021/10/11 09:19:47;;;;;;;62.55;36.35;;;;;;;10.64;79.08;99575.70;4173932;84;21049;-82
2021/10/11 09:25:44;;;;;;;61.30;36.13;;;;;;;10.88;78.19;99578.91;4174211;84;21057;-82
2021/10/11 09:31:50;;;;;;;59.98;36.00;;;;;;;11.65;76.02;99575.40;4172448;84;21089;-81
2021/10/11 09:37:52;;;;;;;61.23;35.45;;;;;;;12.78;77.98;99562.62;4174336;84;21068;-82
2021/10/11 09:43:54;;;;;;;58.63;34.40;;;;;;;14.07;76.35;99564.97;4174770;83;21629;-83
2021/10/11 09:49:56;;;;;;;46.95;30.62;;;;;;;15.19;74.62;99555.78;4180702;83;21075;-82
2021/10/11 09:55:58;;;;;;;46.20;28.47;;;;;;;16.17;73.43;99549.46;4185378;83;21095;-83
2021/10/11 10:02:00;;;;;;;44.00;24.07;;;;;;;16.81;72.41;99541.14;4189958;83;21016;-81
2021/10/11 10:08:08;;;;;;;38.80;22.05;;;;;;;17.29;70.33;99535.69;4187827;83;21093;-81
2021/10/11 10:14:24;;;;;;;35.38;23.05;;;;;;;17.95;68.60;99519.13;4180204;82;21040;-82
2021/10/11 10:20:26;;;;;;;34.70;21.12;;;;;;;18.55;67.43;99514.31;4183297;83;21096;-84
2021/10/11 10:26:34;;;;;;;29.65;18.87;;;;;;;18.63;65.55;99510.25;4177592;83;21060;-83
2021/10/11 10:32:36;;;;;;;33.90;20.97;;;;;;;18.33;63.74;99499.11;4185467;82;21135;-83
2021/10/11 10:38:37;;;;;;;35.70;19.42;;;;;;;18.46;61.27;99482.16;4178126;83;21045;-82
2021/10/11 10:44:44;;;;;;;27.02;17.30;;;;;;;18.07;60.68;99478.42;4156614;83;21118;-82
2021/10/11 10:50:45;;;;;;;32.80;18.35;;;;;;;17.82;60.46;99459.14;4139734;84;21087;-83
2021/10/11 10:56:55;;;;;;;28.23;16.17;;;;;;;17.46;58.30;99455.15;4140199;83;21098;-81
2021/10/11 11:02:57;;;;;;;29.70;18.30;;;;;;;16.78;57.78;99453.48;4138110;84;21066;-82
2021/10/11 11:09:00;;;;;;;35.15;19.73;;;;;;;16.68;57.10;99439.70;4139647;84;21031;-82
2021/10/11 11:15:05;;;;;;;32.15;17.15;;;;;;;16.53;55.57;99436.27;4139399;84;21609;-82
2021/10/11 11:21:07;;;;;;;30.57;16.27;;;;;;;16.12;55.90;99428.93;4107400;83;22960;-82
2021/10/11 11:27:09;;;;;;;33.73;18.52;;;;;;;15.75;54.95;99412.91;4034871;86;21071;-83
2021/10/11 11:33:14;;;;;;;30.45;17.60;;;;;;;15.33;54.23;99418.49;4057122;86;21579;-83
2021/10/11 11:39:16;;;;;;;30.95;19.25;;;;;;;15.00;54.67;99410.02;4061031;86;21067;-82
2021/10/11 11:45:19;;;;;;;34.03;19.12;;;;;;;14.62;54.17;99403.91;4110090;84;21111;-82
2021/10/11 11:51:21;;;;;;;36.95;21.30;;;;;;;14.36;54.33;99399.34;4139351;84;21124;-82
2021/10/11 11:57:22;;;;;;;33.08;20.20;;;;;;;14.19;54.30;99396.11;4136339;84;21076;-83
2021/10/11 12:03:27;;;;;;;35.65;19.67;;;;;;;14.12;53.87;99390.59;4122010;84;21107;-82
2021/10/11 12:09:29;;;;;;;39.23;19.70;;;;;;;14.14;54.34;99386.84;4128693;84;21083;-81
2021/10/11 12:15:33;;;;;;;36.95;20.60;;;;;;;14.00;53.94;99385.42;4138316;84;21041;-82
2021/10/11 12:21:38;;;;;;;35.88;19.52;;;;;;;13.89;54.13;99384.59;4142767;84;21120;-82
2021/10/11 12:27:40;;;;;;;38.75;21.07;;;;;;;13.79;54.09;99370.80;4133668;84;21090;-82
2021/10/11 12:33:41;;;;;;;33.05;18.05;;;;;;;13.74;54.12;99369.79;4134780;84;21087;-83
2021/10/11 12:39:46;;;;;;;39.08;17.60;;;;;;;13.74;54.54;99369.79;4138427;84;21066;-83
2021/10/11 12:46:07;;;;;;;32.60;18.17;;;;;;;13.66;54.23;99367.60;4145199;84;21056;-82
2021/10/11 12:52:09;;;;;;;36.38;17.65;;;;;;;13.52;54.06;99374.41;4150675;84;21063;-82
2021/10/11 12:58:11;;;;;;;31.45;18.20;;;;;;;13.38;54.09;99374.33;4149848;84;21460;-81
2021/10/11 13:04:12;;;;;;;31.82;18.60;;;;;;;13.33;53.88;99370.56;4151226;84;21068;-82
2021/10/11 13:10:15;;;;;;;33.25;17.90;;;;;;;13.20;53.89;99366.54;4153315;84;21102;-82
2021/10/11 13:16:16;;;;;;;37.75;18.25;;;;;;;13.16;54.15;99361.63;4151641;84;21036;-82
2021/10/11 13:22:18;;;;;;;41.40;20.00;;;;;;;13.10;53.95;99364.53;4150082;84;22260;-83
2021/10/11 13:28:20;;;;;;;43.95;22.95;;;;;;;12.97;54.11;99363.22;4161938;81;25735;-82
2021/10/11 13:35:01;;;;;;;42.65;22.62;;;;;;;12.91;54.10;99357.08;4188372;82;21047;-81
2021/10/11 14:31:28;;;;;;;45.78;24.00;;;;;;;12.45;57.18;99309.44;4200336;82;21001;-82
2021/10/11 15:59:59;;;;;;;62.25;31.65;;;;;;;10.33;62.92;99289.31;4197348;82;21036;-82
2021/10/11 16:05:56;;;;;;;62.83;33.05;;;;;;;10.27;63.75;99289.98;4192070;82;21066;-80
2021/10/11 16:11:59;;;;;;;73.07;37.65;;;;;;;10.24;64.31;99291.48;4192674;82;21077;-81
2021/10/11 16:18:00;;;;;;;72.25;34.63;;;;;;;10.15;64.57;99290.95;4192159;83;21053;-83
2021/10/11 16:24:03;;;;;;;73.20;37.85;;;;;;;10.02;65.19;99298.30;4214594;80;45855;-82
2021/10/11 16:30:05;;;;;;;89.17;41.35;;;;;;;9.83;65.99;99293.67;4254189;82;21004;-82
2021/10/11 16:36:09;;;;;;;76.40;40.08;;;;;;;9.68;65.77;99297.27;4239276;82;21789;-82
2021/10/11 16:42:10;;;;;;;81.95;40.25;;;;;;;9.58;66.16;99309.37;4242710;82;22480;-82
2021/10/11 16:48:11;;;;;;;56.58;30.40;;;;;;;9.45;66.69;99312.25;4233892;82;21035;-83
2021/10/11 16:54:13;;;;;;;74.45;39.78;;;;;;;9.42;67.78;99315.71;4232739;81;21071;-82
2021/10/11 17:00:16;;;;;;;82.27;43.80;;;;;;;9.36;67.94;99313.62;4239093;82;21141;-83
2021/10/11 17:06:17;;;;;;;93.15;46.33;;;;;;;9.21;67.34;99310.35;4236355;82;21654;-82
2021/10/11 17:12:19;;;;;;;77.35;41.10;;;;;;;9.19;67.98;99312.08;4234048;82;21096;-83
2021/10/11 17:18:20;;;;;;;68.33;36.88;;;;;;;9.16;68.85;99320.98;4237553;82;21031;-82
2021/10/11 17:24:22;;;;;;;76.00;40.95;;;;;;;9.10;69.58;99316.96;4235712;82;21093;-82
2021/10/11 17:30:24;;;;;;;58.78;33.98;;;;;;;9.03;69.86;99322.84;4246026;82;21004;-82
2021/10/11 17:36:26;;;;;;;71.80;40.20;;;;;;;8.97;70.61;99320.17;4242497;82;21026;-83
2021/10/11 17:42:28;;;;;;;76.95;40.30;;;;;;;8.83;70.41;99321.22;3961751;84;9999978;-82
2021/10/11 17:48:29;;;;;;;82.92;45.10;;;;;;;8.68;70.65;99317.36;4043852;85;21110;-82
2021/10/11 17:54:31;;;;;;;67.85;38.25;;;;;;;8.63;70.84;99312.77;4046828;86;21647;-82
2021/10/11 18:00:33;;;;;;;67.95;38.60;;;;;;;8.52;71.27;99306.26;4045898;86;22102;-82
2021/10/11 18:06:35;;;;;;;80.28;41.02;;;;;;;8.34;71.37;99307.19;4044687;86;21574;-82
2021/10/11 18:12:37;;;;;;;81.50;42.03;;;;;;;8.09;71.52;99307.66;4041012;86;21062;-82
2021/10/11 18:18:40;;;;;;;91.85;48.83;;;;;;;7.92;72.02;99305.48;4040878;86;21028;-82
2021/10/11 18:24:42;;;;;;;73.65;39.90;;;;;;;7.84;72.54;99311.91;4048610;86;21558;-82
2021/10/11 18:30:43;;;;;;;77.50;42.98;;;;;;;7.60;72.41;99301.13;4049420;86;21048;-82
2021/10/11 18:36:45;;;;;;;89.87;47.45;;;;;;;7.38;73.04;99298.14;4046819;86;21912;-82
2021/10/11 18:42:46;;;;;;;67.53;39.70;;;;;;;7.42;73.35;99293.61;4105380;86;21027;-82
2021/10/11 18:48:49;;;;;;;78.00;41.25;;;;;;;7.30;73.70;99290.91;4137469;84;21123;-83
2021/10/11 18:54:51;;;;;;;83.22;44.58;;;;;;;7.20;74.31;99290.85;4135228;84;21556;-82
2021/10/11 19:00:52;;;;;;;86.85;46.68;;;;;;;7.17;74.64;99298.91;4141028;84;21032;-82
2021/10/11 19:06:54;;;;;;;92.12;45.90;;;;;;;7.19;74.80;99290.61;4133958;84;20999;-82
2021/10/11 19:12:57;;;;;;;99.28;50.15;;;;;;;7.25;75.18;99289.22;4027433;84;10000341;-82
2021/10/11 19:18:58;;;;;;;104.92;54.65;;;;;;;7.25;75.35;99287.86;4096853;85;21910;-81
2021/10/11 19:25:00;;;;;;;127.82;66.10;;;;;;;7.35;75.50;99289.30;4088536;85;21079;-82
2021/10/11 19:31:01;;;;;;;132.20;69.70;;;;;;;7.39;75.58;99286.13;4092147;85;21043;-82
2021/10/11 19:37:04;;;;;;;119.62;64.07;;;;;;;7.26;75.20;99279.13;4095209;85;21051;-82
2021/10/11 19:43:06;;;;;;;132.75;67.70;;;;;;;7.23;75.97;99277.10;4148096;84;20984;-82
2021/10/11 19:49:11;;;;;;;129.20;67.80;;;;;;;7.01;75.51;99279.78;4113088;84;21039;-82
2021/10/11 19:55:13;;;;;;;135.55;71.62;;;;;;;6.87;76.11;99279.92;4119131;84;21101;-82
2021/10/11 20:01:14;;;;;;;136.55;70.08;;;;;;;6.78;76.51;99268.38;4108942;84;21651;-82
2021/10/11 20:07:16;;;;;;;128.62;67.27;;;;;;;6.86;76.92;99266.88;4116936;84;21165;-82
2021/10/11 20:13:20;;;;;;;124.62;62.73;;;;;;;6.85;77.11;99266.66;4116203;84;21051;-83
2021/10/11 20:19:22;;;;;;;115.40;61.63;;;;;;;6.90;77.37;99263.71;4116502;84;21098;-82
2021/10/11 20:25:23;;;;;;;130.97;65.05;;;;;;;6.89;77.10;99257.25;4112321;84;21098;-82
2021/10/11 20:31:24;;;;;;;130.30;64.32;;;;;;;6.86;77.86;99257.94;4167799;83;21031;-84
2021/10/11 20:37:27;;;;;;;114.85;61.68;;;;;;;6.91;77.88;99250.31;4095630;85;21057;-82
2021/10/11 20:43:28;;;;;;;119.42;63.23;;;;;;;6.95;77.84;99250.42;4103983;85;21127;-82
2021/10/11 20:49:31;;;;;;;122.60;63.17;;;;;;;6.98;77.81;99253.81;4121755;84;21087;-82
2021/10/11 20:55:33;;;;;;;122.95;65.47;;;;;;;6.97;78.06;99248.16;4121056;84;21059;-82
2021/10/11 21:01:36;;;;;;;116.67;62.48;;;;;;;6.91;77.93;99243.52;4121882;84;21039;-82
2021/10/11 21:07:39;;;;;;;123.30;62.27;;;;;;;6.82;78.31;99244.78;4115540;84;21094;-82
2021/10/11 21:13:40;;;;;;;117.25;61.23;;;;;;;6.75;78.55;99238.55;4119155;84;21090;-82
2021/10/11 21:19:42;;;;;;;117.85;63.42;;;;;;;6.79;78.64;99229.14;4122615;84;21031;-82
2021/10/11 21:25:43;;;;;;;121.87;62.43;;;;;;;6.84;78.85;99226.19;4118160;84;21685;-82
2021/10/11 21:31:45;;;;;;;116.08;62.40;;;;;;;6.83;78.80;99219.95;4125874;84;21043;-83
2021/10/11 21:37:46;;;;;;;123.00;61.73;;;;;;;6.74;79.11;99214.41;4128565;84;21094;-82
2021/10/11 21:43:48;;;;;;;116.22;61.18;;;;;;;6.77;79.29;99208.28;4124475;84;21095;-82
2021/10/11 21:49:49;;;;;;;113.65;58.95;;;;;;;6.77;79.35;99213.16;4135805;84;21167;-82
2021/10/11 21:55:50;;;;;;;124.00;63.23;;;;;;;6.66;79.25;99205.26;4249368;82;21035;-82
2021/10/11 22:01:52;;;;;;;130.25;64.72;;;;;;;6.58;79.41;99206.17;4255731;82;21621;-83
2021/10/11 22:07:54;;;;;;;110.40;60.05;;;;;;;6.55;79.70;99207.42;4252469;82;21089;-81
2021/10/11 22:13:55;;;;;;;112.37;57.88;;;;;;;6.57;80.00;99188.84;4252313;82;21062;-81
2021/10/11 22:19:56;;;;;;;116.95;60.28;;;;;;;6.69;80.49;99184.16;4260993;82;21519;-82
2021/10/11 22:25:57;;;;;;;115.95;57.95;;;;;;;6.78;80.58;99178.59;4249863;83;21025;-82
2021/10/11 22:31:59;;;;;;;116.60;59.65;;;;;;;6.80;80.53;99179.02;4254067;82;21065;-83
2021/10/11 22:38:00;;;;;;;118.97;62.23;;;;;;;6.85;80.83;99176.06;4257073;83;21084;-81
2021/10/11 22:44:02;;;;;;;115.28;59.23;;;;;;;6.86;80.87;99176.30;4245470;82;21002;-81
2021/10/11 22:50:04;;;;;;;109.52;57.70;;;;;;;6.83;81.07;99173.69;4247861;82;21101;-81
2021/10/11 22:56:05;;;;;;;103.75;54.38;;;;;;;6.88;81.17;99169.92;4245419;82;21058;-82
2021/10/11 23:02:07;;;;;;;100.72;52.78;;;;;;;6.93;81.03;99166.97;4249542;82;21533;-81
2021/10/11 23:08:08;;;;;;;101.70;51.02;;;;;;;6.93;81.18;99166.41;4242374;82;21082;-81
2021/10/11 23:14:09;;;;;;;101.05;51.95;;;;;;;6.94;81.47;99170.70;4248854;82;22224;-82
2021/10/11 23:20:14;;;;;;;100.05;50.95;;;;;;;6.97;81.36;99179.53;4248620;82;21006;-82
2021/10/11 23:26:15;;;;;;;94.95;50.25;;;;;;;6.97;81.53;99171.36;4245754;82;22169;-81
2021/10/11 23:32:16;;;;;;;92.00;47.35;;;;;;;7.05;81.98;99171.78;4248803;82;21589;-82
2021/10/11 23:38:17;;;;;;;88.75;46.55;;;;;;;7.07;82.05;99173.60;4243585;82;21049;-81
2021/10/11 23:44:19;;;;;;;101.35;51.53;;;;;;;7.10;82.09;99175.63;4238812;83;21101;-81
2021/10/11 23:50:20;;;;;;;95.25;51.85;;;;;;;7.19;82.53;99174.89;4249862;82;21067;-81
2021/10/11 23:56:22;;;;;;;110.50;57.88;;;;;;;7.31;82.99;99180.27;4242143;83;21058;-81
